createdAt,value
2022-12-24T00:00:44.257Z,100.00
2022-12-24T00:01:47.015Z,100.00
2022-12-24T00:02:49.928Z,100.00
2022-12-24T00:03:52.794Z,100.00
2022-12-24T00:05:00.688Z,100.00
2022-12-24T00:06:17.633Z,100.00
2022-12-24T00:07:20.511Z,100.00
2022-12-24T00:08:23.519Z,100.00
2022-12-24T00:09:26.485Z,100.00
2022-12-24T00:10:29.244Z,100.00
2022-12-24T00:11:32.291Z,100.00
2022-12-24T00:12:34.966Z,100.00
2022-12-24T00:13:38.137Z,100.00
2022-12-24T00:14:41.177Z,100.00
2022-12-24T00:15:44.089Z,100.00
2022-12-24T00:16:47.017Z,100.00
2022-12-24T00:17:49.825Z,100.00
2022-12-24T00:18:54.178Z,100.00
2022-12-24T00:19:57.064Z,100.00
2022-12-24T00:21:00.065Z,100.00
2022-12-24T00:22:02.817Z,100.00
2022-12-24T00:23:05.577Z,100.00
2022-12-24T00:24:08.589Z,100.00
2022-12-24T00:25:12.861Z,100.00
2022-12-24T00:26:15.773Z,100.00
2022-12-24T00:27:18.986Z,100.00
2022-12-24T00:28:25.415Z,100.00
2022-12-24T00:29:28.457Z,100.00
2022-12-24T00:30:31.436Z,100.00
2022-12-24T00:31:34.472Z,100.00
2022-12-24T00:32:38.983Z,100.00
2022-12-24T00:33:41.987Z,100.00
2022-12-24T00:34:44.795Z,100.00
2022-12-24T00:35:51.576Z,100.00
2022-12-24T00:36:54.819Z,100.00
2022-12-24T00:37:57.625Z,100.00
2022-12-24T00:39:00.616Z,100.00
2022-12-24T00:40:04.116Z,100.00
2022-12-24T00:41:25.374Z,100.00
2022-12-24T00:42:28.813Z,100.00
2022-12-24T00:43:32.929Z,100.00
2022-12-24T00:44:35.895Z,100.00
2022-12-24T00:45:38.905Z,100.00
2022-12-24T00:46:42.618Z,100.00
2022-12-24T00:47:46.025Z,100.00
2022-12-24T00:48:51.193Z,100.00
2022-12-24T00:49:54.621Z,100.00
2022-12-24T00:50:57.879Z,100.00
2022-12-24T00:52:03.681Z,100.00
2022-12-24T00:53:06.625Z,100.00
2022-12-24T00:54:09.951Z,100.00
2022-12-24T00:55:12.784Z,100.00
2022-12-24T00:56:16.176Z,100.00
2022-12-24T00:57:19.253Z,100.00
2022-12-24T00:58:23.234Z,100.00
2022-12-24T00:59:26.428Z,100.00
2022-12-24T01:00:29.505Z,100.00
2022-12-24T01:01:32.759Z,100.00
2022-12-24T01:02:35.955Z,100.00
2022-12-24T01:03:39.172Z,100.00
2022-12-24T01:05:01.037Z,100.00
2022-12-24T01:06:10.158Z,100.00
2022-12-24T01:07:13.359Z,100.00
2022-12-24T01:08:19.869Z,100.00
2022-12-24T01:09:22.877Z,100.00
2022-12-24T01:10:26.261Z,100.00
2022-12-24T01:11:29.393Z,100.00
2022-12-24T01:12:32.786Z,100.00
2022-12-24T01:13:37.155Z,100.00
2022-12-24T01:14:40.203Z,100.00
2022-12-24T01:15:43.288Z,100.00
2022-12-24T01:16:46.592Z,100.00
2022-12-24T01:17:49.731Z,100.00
2022-12-24T01:18:54.001Z,100.00
2022-12-24T01:19:57.823Z,100.00
2022-12-24T01:21:03.727Z,100.00
2022-12-24T01:22:06.768Z,100.00
2022-12-24T01:23:09.705Z,100.00
2022-12-24T01:24:16.126Z,100.00
2022-12-24T01:25:19.200Z,100.00
2022-12-24T01:26:22.223Z,100.00
2022-12-24T01:27:25.673Z,100.00
2022-12-24T01:28:32.488Z,100.00
2022-12-24T01:29:35.925Z,100.00
2022-12-24T01:30:40.835Z,100.00
2022-12-24T01:31:44.042Z,100.00
2022-12-24T01:32:46.982Z,100.00
2022-12-24T01:33:50.237Z,100.00
2022-12-24T01:34:53.315Z,100.00
2022-12-24T01:35:56.197Z,100.00
2022-12-24T01:36:59.355Z,100.00
2022-12-24T01:38:02.412Z,100.00
2022-12-24T01:39:05.749Z,100.00
2022-12-24T01:40:33.710Z,100.00
2022-12-24T01:41:55.228Z,100.00
2022-12-24T01:43:16.931Z,100.00
2022-12-24T01:44:36.633Z,100.00
2022-12-24T01:45:47.678Z,100.00
2022-12-24T01:47:00.506Z,100.00
2022-12-24T01:48:04.880Z,100.00
2022-12-24T01:49:11.837Z,100.00
2022-12-24T01:50:18.969Z,100.00
2022-12-24T01:51:30.777Z,100.00
2022-12-24T01:52:36.306Z,100.00
2022-12-24T01:53:45.616Z,100.00
2022-12-24T01:54:52.747Z,100.00
2022-12-24T01:55:56.427Z,100.00
2022-12-24T01:57:09.559Z,100.00
2022-12-24T01:58:16.950Z,100.00
2022-12-24T01:59:21.645Z,100.00
2022-12-24T02:00:24.958Z,100.00
2022-12-24T02:01:28.115Z,100.00
2022-12-24T02:02:33.836Z,100.00
2022-12-24T02:03:37.083Z,100.00
2022-12-24T02:05:06.474Z,100.00
2022-12-24T02:06:12.795Z,100.00
2022-12-24T02:07:16.123Z,100.00
2022-12-24T02:08:19.436Z,100.00
2022-12-24T02:09:22.951Z,100.00
2022-12-24T02:10:25.912Z,100.00
2022-12-24T02:11:30.487Z,100.00
2022-12-24T02:12:36.522Z,100.00
2022-12-24T02:13:39.890Z,100.00
2022-12-24T02:14:42.953Z,100.00
2022-12-24T02:16:02.996Z,100.00
2022-12-24T02:17:32.487Z,100.00
2022-12-24T02:18:47.328Z,100.00
2022-12-24T02:20:14.174Z,100.00
2022-12-24T02:21:41.668Z,100.00
2022-12-24T02:23:26.337Z,100.00
2022-12-24T02:25:02.978Z,100.00
2022-12-24T02:26:18.136Z,100.00
2022-12-24T02:27:55.753Z,100.00
2022-12-24T02:29:10.842Z,100.00
2022-12-24T02:30:44.643Z,100.00
2022-12-24T02:31:59.902Z,100.00
2022-12-24T02:33:23.831Z,100.00
2022-12-24T02:34:31.766Z,100.00
2022-12-24T02:35:43.391Z,100.00
2022-12-24T02:37:01.241Z,100.00
2022-12-24T02:38:31.845Z,100.00
2022-12-24T02:39:43.904Z,100.00
2022-12-24T02:40:52.796Z,100.00
2022-12-24T02:42:07.499Z,100.00
2022-12-24T02:43:22.720Z,100.00
2022-12-24T02:44:29.495Z,100.00
2022-12-24T02:45:34.786Z,100.00
2022-12-24T02:46:38.369Z,100.00
2022-12-24T02:47:43.008Z,100.00
2022-12-24T02:48:49.480Z,100.00
2022-12-24T02:49:52.840Z,100.00
2022-12-24T02:50:57.905Z,100.00
2022-12-24T02:52:01.299Z,100.00
2022-12-24T02:53:04.181Z,100.00
2022-12-24T02:54:07.897Z,100.00
2022-12-24T02:55:29.416Z,100.00
2022-12-24T02:57:04.912Z,100.00
2022-12-24T02:58:31.223Z,100.00
2022-12-24T02:59:40.266Z,100.00
2022-12-24T03:01:16.788Z,100.00
2022-12-24T03:02:35.698Z,100.00
2022-12-24T03:03:56.540Z,100.00
2022-12-24T03:05:28.379Z,100.00
2022-12-24T03:06:55.080Z,100.00
2022-12-24T03:08:34.098Z,100.00
2022-12-24T03:09:57.549Z,100.00
2022-12-24T03:11:11.257Z,100.00
2022-12-24T03:12:22.029Z,100.00
2022-12-24T03:13:27.269Z,100.00
2022-12-24T03:14:30.971Z,100.00
2022-12-24T03:15:34.784Z,100.00
2022-12-24T03:16:38.488Z,100.00
2022-12-24T03:17:45.884Z,100.00
2022-12-24T03:18:52.363Z,100.00
2022-12-24T03:19:56.677Z,100.00
2022-12-24T03:21:02.509Z,100.00
2022-12-24T03:22:10.284Z,100.00
2022-12-24T03:23:13.997Z,100.00
2022-12-24T03:24:16.994Z,100.00
2022-12-24T03:25:24.651Z,100.00
2022-12-24T03:26:31.084Z,100.00
2022-12-24T03:27:35.709Z,100.00
2022-12-24T03:28:41.477Z,100.00
2022-12-24T03:29:46.140Z,100.00
2022-12-24T03:30:49.117Z,100.00
2022-12-24T03:31:53.932Z,100.00
2022-12-24T03:32:56.968Z,100.00
2022-12-24T03:33:59.879Z,100.00
2022-12-24T03:35:03.557Z,100.00
2022-12-24T03:36:07.646Z,100.00
2022-12-24T03:37:10.972Z,100.00
2022-12-24T03:38:29.752Z,100.00
2022-12-24T03:39:32.807Z,100.00
2022-12-24T03:40:35.826Z,100.00
2022-12-24T03:41:39.427Z,100.00
2022-12-24T03:42:42.367Z,100.00
2022-12-24T03:43:45.316Z,100.00
2022-12-24T03:44:48.617Z,100.00
2022-12-24T03:45:51.836Z,100.00
2022-12-24T03:46:55.078Z,100.00
2022-12-24T03:48:00.264Z,100.00
2022-12-24T03:49:04.094Z,100.00
2022-12-24T03:50:07.969Z,100.00
2022-12-24T03:52:28.582Z,100.00
2022-12-24T03:53:35.387Z,100.00
2022-12-24T03:54:38.298Z,100.00
2022-12-24T03:55:41.196Z,100.00
2022-12-24T03:56:44.541Z,100.00
2022-12-24T03:57:47.600Z,100.00
2022-12-24T03:58:54.566Z,100.00
2022-12-24T03:59:57.701Z,100.00
2022-12-24T04:01:01.007Z,100.00
2022-12-24T04:02:04.459Z,100.00
2022-12-24T04:03:07.511Z,100.00
2022-12-24T04:04:10.720Z,100.00
2022-12-24T04:05:19.927Z,100.00
2022-12-24T04:06:22.974Z,100.00
2022-12-24T04:07:25.919Z,100.00
2022-12-24T04:08:36.142Z,100.00
2022-12-24T04:09:41.044Z,100.00
2022-12-24T04:10:45.686Z,100.00
2022-12-24T04:11:49.179Z,100.00
2022-12-24T04:12:52.254Z,100.00
2022-12-24T04:13:55.266Z,100.00
2022-12-24T04:14:58.199Z,100.00
2022-12-24T04:16:13.182Z,100.00
2022-12-24T04:17:16.569Z,100.00
2022-12-24T04:18:23.757Z,100.00
2022-12-24T04:19:27.726Z,100.00
2022-12-24T04:20:30.799Z,100.00
2022-12-24T04:21:33.932Z,100.00
2022-12-24T04:22:36.907Z,100.00
2022-12-24T04:23:41.818Z,100.00
2022-12-24T04:24:44.988Z,100.00
2022-12-24T04:25:48.680Z,100.00
2022-12-24T04:26:51.598Z,100.00
2022-12-24T04:27:54.615Z,100.00
2022-12-24T04:29:00.051Z,100.00
2022-12-24T04:30:03.524Z,100.00
2022-12-24T04:31:09.463Z,100.00
2022-12-24T04:32:12.484Z,100.00
2022-12-24T04:33:15.343Z,100.00
2022-12-24T04:34:18.353Z,100.00
2022-12-24T04:35:21.319Z,100.00
2022-12-24T04:36:24.485Z,100.00
2022-12-24T04:37:27.694Z,100.00
2022-12-24T04:38:31.710Z,100.00
2022-12-24T04:39:34.774Z,100.00
2022-12-24T04:40:38.107Z,100.00
2022-12-24T04:41:44.371Z,100.00
2022-12-24T04:42:47.460Z,100.00
2022-12-24T04:43:51.357Z,100.00
2022-12-24T04:44:54.520Z,100.00
2022-12-24T04:46:04.648Z,100.00
2022-12-24T04:47:07.702Z,100.00
2022-12-24T04:48:11.542Z,100.00
2022-12-24T04:49:14.578Z,100.00
2022-12-24T04:50:17.710Z,100.00
2022-12-24T04:51:21.532Z,100.00
2022-12-24T04:52:24.453Z,100.00
2022-12-24T04:53:27.376Z,100.00
2022-12-24T04:54:30.660Z,100.00
2022-12-24T04:55:33.543Z,100.00
2022-12-24T04:56:37.344Z,100.00
2022-12-24T04:57:40.537Z,100.00
2022-12-24T04:58:46.349Z,100.00
2022-12-24T04:59:49.414Z,100.00
2022-12-24T05:00:52.791Z,100.00
2022-12-24T05:01:55.768Z,100.00
2022-12-24T05:02:59.060Z,100.00
2022-12-24T05:04:02.970Z,100.00
2022-12-24T05:05:06.903Z,100.00
2022-12-24T05:06:13.151Z,100.00
2022-12-24T05:07:16.130Z,100.00
2022-12-24T05:08:19.458Z,100.00
2022-12-24T05:09:22.687Z,100.00
2022-12-24T05:10:25.754Z,100.00
2022-12-24T05:11:29.335Z,100.00
2022-12-24T05:12:32.362Z,100.00
2022-12-24T05:13:44.066Z,100.00
2022-12-24T05:14:49.309Z,100.00
2022-12-24T05:15:53.928Z,100.00
2022-12-24T05:16:57.038Z,100.00
2022-12-24T05:18:00.109Z,100.00
2022-12-24T05:19:06.329Z,100.00
2022-12-24T05:20:09.491Z,100.00
2022-12-24T05:21:22.541Z,100.00
2022-12-24T05:22:43.762Z,100.00
2022-12-24T05:24:05.589Z,100.00
2022-12-24T05:25:28.441Z,100.00
2022-12-24T05:26:36.607Z,100.00
2022-12-24T05:27:39.854Z,100.00
2022-12-24T05:28:43.856Z,100.00
2022-12-24T05:29:46.893Z,100.00
2022-12-24T05:30:50.251Z,100.00
2022-12-24T05:31:53.559Z,100.00
2022-12-24T05:32:56.657Z,100.00
2022-12-24T05:34:00.461Z,100.00
2022-12-24T05:35:03.874Z,100.00
2022-12-24T05:36:07.580Z,100.00
2022-12-24T05:37:10.835Z,100.00
2022-12-24T05:38:13.948Z,100.00
2022-12-24T05:39:19.106Z,100.00
2022-12-24T05:40:22.310Z,100.00
2022-12-24T05:41:25.705Z,100.00
2022-12-24T05:42:28.733Z,100.00
2022-12-24T05:43:31.872Z,100.00
2022-12-24T05:44:35.075Z,100.00
2022-12-24T05:45:38.270Z,100.00
2022-12-24T05:46:41.465Z,100.00
2022-12-24T05:47:44.533Z,100.00
2022-12-24T05:48:50.536Z,100.00
2022-12-24T05:49:53.681Z,100.00
2022-12-24T05:50:56.862Z,100.00
2022-12-24T05:51:59.733Z,100.00
2022-12-24T05:53:02.709Z,100.00
2022-12-24T05:54:05.656Z,100.00
2022-12-24T05:55:09.539Z,100.00
2022-12-24T05:56:18.951Z,100.00
2022-12-24T05:57:22.085Z,100.00
2022-12-24T05:58:25.461Z,100.00
2022-12-24T05:59:29.333Z,100.00
2022-12-24T06:00:32.775Z,100.00
2022-12-24T06:01:36.075Z,100.00
2022-12-24T06:02:39.495Z,100.00
2022-12-24T06:03:46.255Z,100.00
2022-12-24T06:04:49.155Z,100.00
2022-12-24T06:05:59.674Z,100.00
2022-12-24T06:07:02.635Z,100.00
2022-12-24T06:08:06.200Z,100.00
2022-12-24T06:09:09.407Z,100.00
2022-12-24T06:10:12.352Z,100.00
2022-12-24T06:11:20.089Z,100.00
2022-12-24T06:12:23.281Z,100.00
2022-12-24T06:13:26.656Z,100.00
2022-12-24T06:14:29.619Z,100.00
2022-12-24T06:15:32.781Z,100.00
2022-12-24T06:16:35.957Z,100.00
2022-12-24T06:17:39.134Z,100.00
2022-12-24T06:18:48.400Z,100.00
2022-12-24T06:19:51.425Z,100.00
2022-12-24T06:20:56.022Z,100.00
2022-12-24T06:21:58.937Z,100.00
2022-12-24T06:23:01.745Z,100.00
2022-12-24T06:24:04.985Z,100.00
2022-12-24T06:25:08.500Z,100.00
2022-12-24T06:26:14.905Z,100.00
2022-12-24T06:27:17.837Z,100.00
2022-12-24T06:28:20.934Z,100.00
2022-12-24T06:29:27.550Z,100.00
2022-12-24T06:30:30.539Z,100.00
2022-12-24T06:31:33.649Z,100.00
2022-12-24T06:32:36.921Z,100.00
2022-12-24T06:33:41.687Z,100.00
2022-12-24T06:34:44.843Z,100.00
2022-12-24T06:35:48.702Z,100.00
2022-12-24T06:36:51.866Z,100.00
2022-12-24T06:37:55.054Z,100.00
2022-12-24T06:38:58.587Z,100.00
2022-12-24T06:40:01.670Z,100.00
2022-12-24T06:41:08.738Z,100.00
2022-12-24T06:42:11.697Z,100.00
2022-12-24T06:43:15.631Z,100.00
2022-12-24T06:44:18.830Z,100.00
2022-12-24T06:45:21.900Z,100.00
2022-12-24T06:46:28.336Z,100.00
2022-12-24T06:47:31.499Z,100.00
2022-12-24T06:48:40.215Z,100.00
2022-12-24T06:49:43.369Z,100.00
2022-12-24T06:50:46.977Z,100.00
2022-12-24T06:51:51.420Z,100.00
2022-12-24T06:52:54.567Z,100.00
2022-12-24T06:53:57.503Z,100.00
2022-12-24T06:55:00.410Z,100.00
2022-12-24T06:56:09.652Z,100.00
2022-12-24T06:57:12.971Z,100.00
2022-12-24T06:58:16.618Z,100.00
2022-12-24T06:59:21.708Z,100.00
2022-12-24T07:00:25.275Z,100.00
2022-12-24T07:01:28.329Z,100.00
2022-12-24T07:02:31.502Z,100.00
2022-12-24T07:03:35.620Z,100.00
2022-12-24T07:04:38.747Z,100.00
2022-12-24T07:05:42.462Z,100.00
2022-12-24T07:06:45.461Z,100.00
2022-12-24T07:07:48.460Z,100.00
2022-12-24T07:08:53.154Z,100.00
2022-12-24T07:09:56.625Z,100.00
2022-12-24T07:11:00.656Z,100.00
2022-12-24T07:12:03.901Z,100.00
2022-12-24T07:13:06.858Z,100.00
2022-12-24T07:14:10.357Z,100.00
2022-12-24T07:15:14.112Z,100.00
2022-12-24T07:16:17.872Z,100.00
2022-12-24T07:17:20.866Z,100.00
2022-12-24T07:18:24.396Z,100.00
2022-12-24T07:19:27.855Z,100.00
2022-12-24T07:20:31.028Z,100.00
2022-12-24T07:21:34.039Z,100.00
2022-12-24T07:22:37.127Z,100.00
2022-12-24T07:23:39.969Z,100.00
2022-12-24T07:24:43.031Z,100.00
2022-12-24T07:25:46.052Z,100.00
2022-12-24T07:27:57.356Z,100.00
2022-12-24T07:29:00.659Z,100.00
2022-12-24T07:30:04.760Z,100.00
2022-12-24T07:31:08.045Z,100.00
2022-12-24T07:32:11.524Z,100.00
2022-12-24T07:33:14.430Z,100.00
2022-12-24T07:34:17.540Z,100.00
2022-12-24T07:35:20.459Z,100.00
2022-12-24T07:36:23.539Z,100.00
2022-12-24T07:37:26.771Z,100.00
2022-12-24T07:38:31.862Z,100.00
2022-12-24T07:39:34.837Z,100.00
2022-12-24T07:40:37.749Z,100.00
2022-12-24T07:41:41.836Z,100.00
2022-12-24T07:42:44.876Z,100.00
2022-12-24T07:43:47.829Z,100.00
2022-12-24T07:44:51.224Z,100.00
2022-12-24T07:45:58.314Z,100.00
2022-12-24T07:47:01.324Z,100.00
2022-12-24T07:48:04.677Z,100.00
2022-12-24T07:49:07.911Z,100.00
2022-12-24T07:50:11.263Z,100.00
2022-12-24T07:51:14.978Z,100.00
2022-12-24T07:52:18.225Z,100.00
2022-12-24T07:53:21.841Z,100.00
2022-12-24T07:54:24.870Z,100.00
2022-12-24T07:55:27.803Z,100.00
2022-12-24T07:56:34.631Z,100.00
2022-12-24T07:57:37.587Z,100.00
2022-12-24T07:58:42.819Z,100.00
2022-12-24T07:59:45.700Z,100.00
2022-12-24T08:00:48.695Z,100.00
2022-12-24T08:01:52.489Z,100.00
2022-12-24T08:02:55.662Z,100.00
2022-12-24T08:03:58.782Z,100.00
2022-12-24T08:05:01.694Z,100.00
2022-12-24T08:06:09.312Z,100.00
2022-12-24T08:07:12.244Z,100.00
2022-12-24T08:08:15.241Z,100.00
2022-12-24T08:09:18.539Z,100.00
2022-12-24T08:10:21.933Z,100.00
2022-12-24T08:11:24.919Z,100.00
2022-12-24T08:12:27.908Z,100.00
2022-12-24T08:13:31.131Z,100.00
2022-12-24T08:14:34.111Z,100.00
2022-12-24T08:15:37.064Z,100.00
2022-12-24T08:16:40.133Z,100.00
2022-12-24T08:17:43.295Z,100.00
2022-12-24T08:18:46.570Z,100.00
2022-12-24T08:19:49.416Z,100.00
2022-12-24T08:20:52.560Z,100.00
2022-12-24T08:21:55.483Z,100.00
2022-12-24T08:22:58.480Z,100.00
2022-12-24T08:24:01.398Z,100.00
2022-12-24T08:25:04.622Z,100.00
2022-12-24T08:26:08.995Z,100.00
2022-12-24T08:27:12.143Z,100.00
2022-12-24T08:28:21.067Z,100.00
2022-12-24T08:29:25.952Z,100.00
2022-12-24T08:30:28.920Z,100.00
2022-12-24T08:31:37.005Z,100.00
2022-12-24T08:32:40.526Z,100.00
2022-12-24T08:33:43.517Z,100.00
2022-12-24T08:34:46.581Z,100.00
2022-12-24T08:35:50.878Z,100.00
2022-12-24T08:36:53.779Z,100.00
2022-12-24T08:37:57.000Z,100.00
2022-12-24T08:39:03.888Z,100.00
2022-12-24T08:40:07.363Z,100.00
2022-12-24T08:41:10.857Z,100.00
2022-12-24T08:42:13.841Z,100.00
2022-12-24T08:43:18.405Z,100.00
2022-12-24T08:44:21.388Z,100.00
2022-12-24T08:45:24.337Z,100.00
2022-12-24T08:46:27.541Z,100.00
2022-12-24T08:47:30.940Z,100.00
2022-12-24T08:48:36.971Z,100.00
2022-12-24T08:49:40.331Z,100.00
2022-12-24T08:50:43.705Z,100.00
2022-12-24T08:51:47.075Z,100.00
2022-12-24T08:52:50.230Z,100.00
2022-12-24T08:53:53.132Z,100.00
2022-12-24T08:54:56.011Z,100.00
2022-12-24T08:56:07.834Z,100.00
2022-12-24T08:57:11.115Z,100.00
2022-12-24T08:58:14.280Z,100.00
2022-12-24T08:59:17.842Z,100.00
2022-12-24T09:00:21.002Z,100.00
2022-12-24T09:01:24.081Z,100.00
2022-12-24T09:02:27.180Z,100.00
2022-12-24T09:03:30.233Z,100.00
2022-12-24T09:04:33.473Z,100.00
2022-12-24T09:05:40.820Z,100.00
2022-12-24T09:06:43.739Z,100.00
2022-12-24T09:07:46.873Z,100.00
2022-12-24T09:08:49.905Z,100.00
2022-12-24T09:09:52.785Z,100.00
2022-12-24T09:10:55.688Z,100.00
2022-12-24T09:11:58.736Z,100.00
2022-12-24T09:13:02.199Z,100.00
2022-12-24T09:14:06.155Z,100.00
2022-12-24T09:15:09.718Z,100.00
2022-12-24T09:16:13.693Z,100.00
2022-12-24T09:17:16.718Z,100.00
2022-12-24T09:18:21.695Z,100.00
2022-12-24T09:19:24.879Z,100.00
2022-12-24T09:20:27.745Z,100.00
2022-12-24T09:21:31.709Z,100.00
2022-12-24T09:22:37.279Z,100.00
2022-12-24T09:23:41.082Z,100.00
2022-12-24T09:24:44.220Z,100.00
2022-12-24T09:25:47.495Z,100.00
2022-12-24T09:26:57.322Z,100.00
2022-12-24T09:28:04.448Z,100.00
2022-12-24T09:29:08.408Z,100.00
2022-12-24T09:30:12.663Z,100.00
2022-12-24T09:31:18.587Z,100.00
2022-12-24T09:32:23.459Z,100.00
2022-12-24T09:33:27.626Z,100.00
2022-12-24T09:34:50.375Z,100.00
2022-12-24T09:35:53.691Z,100.00
2022-12-24T09:36:56.527Z,100.00
2022-12-24T09:38:05.432Z,100.00
2022-12-24T09:39:12.336Z,100.00
2022-12-24T09:40:29.338Z,100.00
2022-12-24T09:41:41.576Z,100.00
2022-12-24T09:42:54.697Z,100.00
2022-12-24T09:44:03.988Z,100.00
2022-12-24T09:45:14.243Z,100.00
2022-12-24T09:46:26.517Z,100.00
2022-12-24T09:47:41.472Z,100.00
2022-12-24T09:48:49.731Z,100.00
2022-12-24T09:49:59.336Z,100.00
2022-12-24T09:51:17.462Z,100.00
2022-12-24T09:52:28.848Z,100.00
2022-12-24T09:53:55.675Z,100.00
2022-12-24T09:55:15.873Z,100.00
2022-12-24T09:56:28.611Z,100.00
2022-12-24T09:57:40.925Z,100.00
2022-12-24T09:58:56.502Z,100.00
2022-12-24T09:59:59.540Z,100.00
2022-12-24T10:01:02.770Z,100.00
2022-12-24T10:02:15.581Z,100.00
2022-12-24T10:03:22.452Z,100.00
2022-12-24T10:04:31.510Z,100.00
2022-12-24T10:05:52.992Z,100.00
2022-12-24T10:07:20.747Z,100.00
2022-12-24T10:08:50.861Z,100.00
2022-12-24T10:10:00.912Z,100.00
2022-12-24T10:11:12.699Z,100.00
2022-12-24T10:12:46.026Z,100.00
2022-12-24T10:14:18.967Z,100.00
2022-12-24T10:15:39.009Z,100.00
2022-12-24T10:16:54.350Z,100.00
2022-12-24T10:18:22.055Z,100.00
2022-12-24T10:19:46.849Z,100.00
2022-12-24T10:21:06.265Z,98.81
2022-12-24T10:22:24.303Z,99.73
2022-12-24T10:23:42.125Z,99.55
2022-12-24T10:24:52.921Z,98.55
2022-12-24T10:26:26.504Z,98.35
2022-12-24T10:27:36.730Z,96.27
2022-12-24T10:29:00.980Z,95.24
2022-12-24T10:30:17.308Z,94.58
2022-12-24T10:31:27.596Z,93.23
2022-12-24T10:32:34.148Z,93.97
2022-12-24T10:33:47.446Z,94.92
2022-12-24T10:35:18.907Z,94.75
2022-12-24T10:36:28.528Z,96.41
2022-12-24T10:37:31.914Z,95.42
2022-12-24T10:38:34.903Z,94.05
2022-12-24T10:39:37.729Z,93.54
2022-12-24T10:40:51.221Z,94.11
2022-12-24T10:41:59.788Z,92.49
2022-12-24T10:43:02.663Z,93.52
2022-12-24T10:44:05.746Z,93.39
2022-12-24T10:45:15.707Z,92.84
2022-12-24T10:46:22.772Z,91.53
2022-12-24T10:47:26.872Z,86.89
2022-12-24T10:48:36.637Z,84.32
2022-12-24T10:49:49.655Z,83.25
2022-12-24T10:51:08.024Z,84.85
2022-12-24T10:52:14.515Z,82.17
2022-12-24T10:53:54.892Z,82.45
2022-12-24T10:55:28.469Z,83.85
2022-12-24T10:56:31.617Z,83.86
2022-12-24T10:57:35.477Z,82.34
2022-12-24T10:58:51.245Z,83.27
2022-12-24T10:59:56.706Z,82.51
2022-12-24T11:00:59.729Z,84.31
2022-12-24T11:02:03.297Z,85.77
2022-12-24T11:03:23.686Z,85.68
2022-12-24T11:04:30.543Z,85.07
2022-12-24T11:05:35.883Z,85.49
2022-12-24T11:07:02.325Z,84.43
2022-12-24T11:08:27.446Z,84.10
2022-12-24T11:09:37.104Z,84.58
2022-12-24T11:10:54.347Z,82.47
2022-12-24T11:12:03.738Z,82.28
2022-12-24T11:13:38.729Z,79.60
2022-12-24T11:14:42.261Z,80.63
2022-12-24T11:15:45.172Z,80.92
2022-12-24T11:16:54.662Z,79.74
2022-12-24T11:18:04.217Z,78.26
2022-12-24T11:19:20.543Z,75.69
2022-12-24T11:20:28.557Z,74.90
2022-12-24T11:21:32.838Z,74.11
2022-12-24T11:22:35.937Z,72.51
2022-12-24T11:23:39.082Z,72.72
2022-12-24T11:24:48.137Z,73.82
2022-12-24T11:25:53.655Z,73.51
2022-12-24T11:27:42.865Z,75.08
2022-12-24T11:29:16.375Z,75.31
2022-12-24T11:30:27.392Z,75.51
2022-12-24T11:31:33.185Z,74.46
2022-12-24T11:32:36.042Z,74.66
2022-12-24T11:33:50.785Z,74.72
2022-12-24T11:34:53.608Z,76.08
2022-12-24T11:36:06.882Z,75.29
2022-12-24T11:37:21.168Z,74.06
2022-12-24T11:38:27.405Z,76.05
2022-12-24T11:39:38.717Z,74.74
2022-12-24T11:40:48.246Z,75.04
2022-12-24T11:41:51.743Z,74.59
2022-12-24T11:43:00.840Z,74.87
2022-12-24T11:44:04.070Z,75.92
2022-12-24T11:45:26.282Z,75.58
2022-12-24T11:46:29.066Z,75.48
2022-12-24T11:47:40.763Z,74.37
2022-12-24T11:48:44.151Z,74.17
2022-12-24T11:49:47.146Z,74.95
2022-12-24T11:51:01.403Z,75.26
2022-12-24T11:52:10.403Z,74.73
2022-12-24T11:53:26.159Z,75.84
2022-12-24T11:54:34.763Z,76.66
2022-12-24T11:55:51.269Z,76.27
2022-12-24T11:56:57.467Z,74.67
2022-12-24T11:58:15.473Z,73.80
2022-12-24T11:59:25.413Z,75.35
2022-12-24T12:00:29.311Z,74.51
2022-12-24T12:01:38.164Z,75.23
2022-12-24T12:02:46.424Z,74.59
2022-12-24T12:03:57.092Z,75.20
2022-12-24T12:05:03.600Z,74.52
2022-12-24T12:06:30.385Z,74.87
2022-12-24T12:07:39.194Z,74.70
2022-12-24T12:08:43.445Z,74.97
2022-12-24T12:09:53.273Z,74.79
2022-12-24T12:10:59.272Z,74.21
2022-12-24T12:12:08.000Z,75.16
2022-12-24T12:13:33.536Z,73.89
2022-12-24T12:14:50.759Z,73.34
2022-12-24T12:16:08.290Z,74.63
2022-12-24T12:17:23.135Z,74.54
2022-12-24T12:18:47.322Z,74.60
2022-12-24T12:20:00.903Z,73.89
2022-12-24T12:21:12.053Z,73.90
2022-12-24T12:22:29.618Z,72.56
2022-12-24T12:23:40.676Z,74.06
2022-12-24T12:24:49.572Z,74.16
2022-12-24T12:26:00.698Z,72.55
2022-12-24T12:27:21.970Z,73.43
2022-12-24T12:28:46.671Z,73.85
2022-12-24T12:29:57.936Z,74.40
2022-12-24T12:31:19.655Z,73.68
2022-12-24T12:32:35.772Z,73.15
2022-12-24T12:33:39.336Z,74.78
2022-12-24T12:35:04.685Z,75.03
2022-12-24T12:36:10.519Z,75.25
2022-12-24T12:37:25.232Z,74.58
2022-12-24T12:38:31.964Z,74.15
2022-12-24T12:39:37.312Z,74.68
2022-12-24T12:40:45.726Z,73.51
2022-12-24T12:42:12.197Z,74.69
2022-12-24T12:43:26.468Z,74.67
2022-12-24T12:44:38.819Z,73.26
2022-12-24T12:46:04.520Z,73.25
2022-12-24T12:47:21.795Z,73.57
2022-12-24T12:48:41.055Z,74.90
2022-12-24T12:50:26.002Z,75.53
2022-12-24T12:51:40.507Z,74.29
2022-12-24T12:53:03.714Z,75.10
2022-12-24T12:54:24.359Z,73.95
2022-12-24T12:55:57.380Z,74.60
2022-12-24T12:57:06.433Z,74.26
2022-12-24T12:58:37.290Z,73.81
2022-12-24T12:59:47.393Z,73.95
2022-12-24T13:00:55.512Z,73.62
2022-12-24T13:02:26.306Z,73.82
2022-12-24T13:03:40.460Z,73.56
2022-12-24T13:05:20.960Z,73.74
2022-12-24T13:06:46.297Z,73.66
2022-12-24T13:08:07.554Z,74.31
2022-12-24T13:09:34.495Z,73.19
2022-12-24T13:10:46.479Z,73.33
2022-12-24T13:12:09.759Z,72.32
2022-12-24T13:13:20.594Z,72.60
2022-12-24T13:14:32.282Z,72.15
2022-12-24T13:15:50.472Z,73.28
2022-12-24T13:17:19.612Z,73.37
2022-12-24T13:18:34.845Z,72.46
2022-12-24T13:20:17.986Z,73.60
2022-12-24T13:21:27.207Z,73.40
2022-12-24T13:22:30.460Z,73.67
2022-12-24T13:23:33.649Z,72.90
2022-12-24T13:24:36.951Z,71.46
2022-12-24T13:25:43.934Z,71.02
2022-12-24T13:27:15.084Z,71.08
2022-12-24T13:28:31.046Z,70.18
2022-12-24T13:29:36.892Z,68.41
2022-12-24T13:30:41.214Z,67.79
2022-12-24T13:31:44.144Z,66.82
2022-12-24T13:32:50.851Z,66.82
2022-12-24T13:33:56.260Z,65.83
2022-12-24T13:35:23.224Z,65.18
2022-12-24T13:36:46.153Z,64.30
2022-12-24T13:37:49.663Z,64.74
2022-12-24T13:38:53.833Z,65.61
2022-12-24T13:40:10.634Z,65.82
2022-12-24T13:41:38.197Z,67.21
2022-12-24T13:43:01.552Z,67.44
2022-12-24T13:44:18.769Z,66.33
2022-12-24T13:45:34.720Z,66.05
2022-12-24T13:46:48.301Z,66.64
2022-12-24T13:47:51.304Z,66.57
2022-12-24T13:48:54.378Z,66.16
2022-12-24T13:50:13.341Z,66.02
2022-12-24T13:51:25.793Z,66.43
2022-12-24T13:52:30.890Z,66.30
2022-12-24T13:53:42.346Z,66.21
2022-12-24T13:54:50.293Z,65.48
2022-12-24T13:55:59.825Z,63.90
2022-12-24T13:57:06.444Z,64.43
2022-12-24T13:58:20.919Z,64.84
2022-12-24T13:59:44.278Z,63.96
2022-12-24T14:01:33.919Z,63.48
2022-12-24T14:02:46.806Z,64.02
2022-12-24T14:03:55.063Z,63.64
2022-12-24T14:05:03.391Z,63.35
2022-12-24T14:06:30.026Z,63.25
2022-12-24T14:07:35.218Z,64.56
2022-12-24T14:08:44.232Z,66.13
2022-12-24T14:09:51.996Z,66.67
2022-12-24T14:11:15.424Z,66.43
2022-12-24T14:12:47.676Z,66.78
2022-12-24T14:13:51.986Z,67.15
2022-12-24T14:14:54.932Z,67.45
2022-12-24T14:15:57.851Z,67.92
2022-12-24T14:17:22.533Z,68.26
2022-12-24T14:18:25.575Z,67.97
2022-12-24T14:19:43.987Z,67.94
2022-12-24T14:20:55.937Z,68.96